createdAt,value
2018-08-12T00:00:30.831Z,91.92
2018-08-12T00:01:30.741Z,92.05
2018-08-12T00:02:30.715Z,91.95
2018-08-12T00:03:30.713Z,91.76
2018-08-12T00:04:30.749Z,92.05
2018-08-12T00:05:30.880Z,92.30
2018-08-12T00:06:30.812Z,92.43
2018-08-12T00:07:30.741Z,92.54
2018-08-12T00:08:30.837Z,92.62
2018-08-12T00:09:30.803Z,92.65
2018-08-12T00:10:30.845Z,92.70
2018-08-12T00:11:30.718Z,92.76
2018-08-12T00:12:30.815Z,92.84
2018-08-12T00:13:30.762Z,92.81
2018-08-12T00:14:30.841Z,92.59
2018-08-12T00:15:30.813Z,92.49
2018-08-12T00:16:30.805Z,92.27
2018-08-12T00:17:30.788Z,92.14
2018-08-12T00:18:30.811Z,92.16
2018-08-12T00:19:30.789Z,92.38
2018-08-12T00:20:30.790Z,92.40
2018-08-12T00:21:30.731Z,92.46
2018-08-12T00:22:30.752Z,92.68
2018-08-12T00:23:30.751Z,92.84
2018-08-12T00:24:30.846Z,93.24
2018-08-12T00:25:30.693Z,93.83
2018-08-12T00:26:30.792Z,94.53
2018-08-12T00:27:30.679Z,95.26
2018-08-12T00:28:30.795Z,95.61
2018-08-12T00:29:30.682Z,95.91
2018-08-12T00:30:30.828Z,96.07
2018-08-12T00:31:30.668Z,96.23
2018-08-12T00:32:30.773Z,96.42
2018-08-12T00:33:30.678Z,96.47
2018-08-12T00:34:30.751Z,96.58
2018-08-12T00:35:30.826Z,96.69
2018-08-12T00:36:30.777Z,96.69
2018-08-12T00:37:30.842Z,96.91
2018-08-12T00:38:30.819Z,96.96
2018-08-12T00:39:30.838Z,97.07
2018-08-12T00:40:30.862Z,97.02
2018-08-12T00:41:30.840Z,96.88
2018-08-12T00:42:30.773Z,96.69
2018-08-12T00:43:30.783Z,96.58
2018-08-12T00:44:30.867Z,96.31
2018-08-12T00:45:30.809Z,96.02
2018-08-12T00:46:30.900Z,95.75
2018-08-12T00:47:30.880Z,95.50
2018-08-12T00:48:30.831Z,95.31
2018-08-12T00:49:30.807Z,95.20
2018-08-12T00:50:30.883Z,95.10
2018-08-12T00:51:30.885Z,95.15
2018-08-12T00:52:30.885Z,95.10
2018-08-12T00:53:30.886Z,95.20
2018-08-12T00:54:30.814Z,95.26
2018-08-12T00:55:30.886Z,95.26
2018-08-12T00:56:30.821Z,95.23
2018-08-12T00:57:30.888Z,95.31
2018-08-12T00:58:30.888Z,95.47
2018-08-12T00:59:30.820Z,95.53
2018-08-12T01:00:30.889Z,95.56
2018-08-12T01:01:30.825Z,95.66
2018-08-12T01:02:30.891Z,95.80
2018-08-12T01:03:30.823Z,95.96
2018-08-12T01:04:30.893Z,96.15
2018-08-12T01:05:30.771Z,96.17
2018-08-12T01:06:30.863Z,96.20
2018-08-12T01:07:30.840Z,96.26
2018-08-12T01:08:30.762Z,96.31
2018-08-12T01:09:30.779Z,96.42
2018-08-12T01:10:30.866Z,96.64
2018-08-12T01:11:30.802Z,96.93
2018-08-12T01:12:30.867Z,97.04
2018-08-12T01:13:30.802Z,97.18
2018-08-12T01:14:30.800Z,97.21
2018-08-12T01:15:30.890Z,97.36
2018-08-12T01:16:30.963Z,97.53
2018-08-12T01:17:30.806Z,97.53
2018-08-12T01:18:30.799Z,97.55
2018-08-12T01:19:30.870Z,97.45
2018-08-12T01:20:30.788Z,97.34
2018-08-12T01:21:30.808Z,97.28
2018-08-12T01:22:30.806Z,97.21
2018-08-12T01:23:30.852Z,97.15
2018-08-12T01:24:30.809Z,97.18
2018-08-12T01:25:30.907Z,97.15
2018-08-12T01:26:30.868Z,97.15
2018-08-12T01:27:30.849Z,97.18
2018-08-12T01:28:30.930Z,97.18
2018-08-12T01:29:30.844Z,97.18
2018-08-12T01:30:30.911Z,97.18
2018-08-12T01:31:30.912Z,97.15
2018-08-12T01:32:30.841Z,97.34
2018-08-12T01:33:30.807Z,97.42
2018-08-12T01:34:30.914Z,97.53
2018-08-12T01:35:30.842Z,97.61
2018-08-12T01:36:30.917Z,97.61
2018-08-12T01:37:30.921Z,97.85
2018-08-12T01:38:30.918Z,97.85
2018-08-12T01:39:30.917Z,97.93
2018-08-12T01:40:30.919Z,97.96
2018-08-12T01:41:30.926Z,97.99
2018-08-12T01:42:30.921Z,98.12
2018-08-12T01:43:30.851Z,98.12
2018-08-12T01:44:30.856Z,98.26
2018-08-12T01:45:30.824Z,98.48
2018-08-12T01:46:30.806Z,98.53
2018-08-12T01:47:30.861Z,98.61
2018-08-12T01:48:30.914Z,98.66
2018-08-12T01:49:30.785Z,98.80
2018-08-12T01:50:30.891Z,98.83
2018-08-12T01:51:30.829Z,98.77
2018-08-12T01:52:30.833Z,98.88
2018-08-12T01:53:30.917Z,98.80
2018-08-12T01:54:30.811Z,98.75
2018-08-12T01:55:30.929Z,98.80
2018-08-12T01:56:30.859Z,98.80
2018-08-12T01:57:30.929Z,98.80
2018-08-12T01:58:30.868Z,98.80
2018-08-12T01:59:30.863Z,98.72
2018-08-12T02:00:30.932Z,98.69
2018-08-12T02:01:30.936Z,98.55
2018-08-12T02:02:30.867Z,98.80
2018-08-12T02:03:30.934Z,98.83
2018-08-12T02:04:30.869Z,98.88
2018-08-12T02:05:30.883Z,99.02
2018-08-12T02:06:30.817Z,99.02
2018-08-12T02:07:30.813Z,99.23
2018-08-12T02:08:30.837Z,99.23
2018-08-12T02:09:30.925Z,99.29
2018-08-12T02:10:30.885Z,99.34
2018-08-12T02:11:30.906Z,99.37
2018-08-12T02:12:30.803Z,99.37
2018-08-12T02:13:30.824Z,99.48
2018-08-12T02:14:30.845Z,99.56
2018-08-12T02:15:30.876Z,99.67
2018-08-12T02:16:30.913Z,99.72
2018-08-12T02:17:30.845Z,99.81
2018-08-12T02:18:30.907Z,99.78
2018-08-12T02:19:30.919Z,99.94
2018-08-12T02:20:30.936Z,99.83
2018-08-12T02:21:30.937Z,99.99
2018-08-12T02:22:30.911Z,99.99
2018-08-12T02:23:30.848Z,99.99
2018-08-12T02:24:30.939Z,99.99
2018-08-12T02:25:30.949Z,99.99
2018-08-12T02:26:30.951Z,99.99
2018-08-12T02:27:30.954Z,99.99
2018-08-12T02:28:30.956Z,99.99
2018-08-12T02:29:30.953Z,99.99
2018-08-12T02:30:30.954Z,99.99
2018-08-12T02:31:30.890Z,99.99
2018-08-12T02:32:30.888Z,99.99
2018-08-12T02:33:30.890Z,99.99
2018-08-12T02:34:30.956Z,99.99
2018-08-12T02:35:30.907Z,99.99
2018-08-12T02:36:30.949Z,99.99
2018-08-12T02:37:30.837Z,99.99
2018-08-12T02:38:30.864Z,99.99
2018-08-12T02:39:30.820Z,99.99
2018-08-12T02:40:30.931Z,99.99
2018-08-12T02:41:30.865Z,99.99
2018-08-12T02:42:30.937Z,99.99
2018-08-12T02:43:30.865Z,99.99
2018-08-12T02:44:35.161Z,99.99
2018-08-12T02:45:30.899Z,99.99
2018-08-12T02:46:30.866Z,99.99
2018-08-12T02:47:30.870Z,99.99
2018-08-12T02:48:30.866Z,99.99
2018-08-12T02:49:30.960Z,99.99
2018-08-12T02:50:30.877Z,99.99
2018-08-12T02:51:30.936Z,99.99
2018-08-12T02:52:30.901Z,99.99
2018-08-12T02:53:30.938Z,99.99
2018-08-12T02:54:30.849Z,99.99
2018-08-12T02:55:30.874Z,99.99
2018-08-12T02:56:30.876Z,99.99
2018-08-12T02:57:30.878Z,99.99
2018-08-12T02:58:30.870Z,99.99
2018-08-12T02:59:30.936Z,99.99
2018-08-12T03:00:30.874Z,99.99
2018-08-12T03:01:30.942Z,99.99
2018-08-12T03:02:30.876Z,99.99
2018-08-12T03:03:30.874Z,99.99
2018-08-12T03:04:30.970Z,99.99
2018-08-12T03:05:30.945Z,99.99
2018-08-12T03:06:30.972Z,99.99
2018-08-12T03:07:30.843Z,99.99
2018-08-12T03:08:30.880Z,99.99
2018-08-12T03:09:30.878Z,99.99
2018-08-12T03:10:30.947Z,99.99
2018-08-12T03:11:30.951Z,99.99
2018-08-12T03:12:30.881Z,99.99
2018-08-12T03:13:30.887Z,99.99
2018-08-12T03:14:30.982Z,99.99
2018-08-12T03:15:30.929Z,99.99
2018-08-12T03:16:30.911Z,99.99
2018-08-12T03:17:30.863Z,99.99
2018-08-12T03:18:30.970Z,99.99
2018-08-12T03:19:30.950Z,99.99
2018-08-12T03:20:30.886Z,99.99
2018-08-12T03:21:30.887Z,99.99
2018-08-12T03:22:31.037Z,99.99
2018-08-12T03:23:30.956Z,99.99
2018-08-12T03:24:30.954Z,99.99
2018-08-12T03:25:30.990Z,99.99
2018-08-12T03:26:30.997Z,99.99
2018-08-12T03:27:30.998Z,99.99
2018-08-12T03:28:31.010Z,99.99
2018-08-12T03:29:30.928Z,99.99
2018-08-12T03:30:30.993Z,99.99
2018-08-12T03:31:30.999Z,99.99
2018-08-12T03:32:30.939Z,99.99
2018-08-12T03:33:31.000Z,99.99
2018-08-12T03:34:30.929Z,99.99
2018-08-12T03:35:30.998Z,99.99
2018-08-12T03:36:30.928Z,99.99
2018-08-12T03:37:31.000Z,99.99
2018-08-12T03:38:30.983Z,99.99
2018-08-12T03:39:31.000Z,99.99
2018-08-12T03:40:30.935Z,99.99
2018-08-12T03:41:31.003Z,99.99
2018-08-12T03:42:30.936Z,99.99
2018-08-12T03:43:31.004Z,99.99
2018-08-12T03:44:31.010Z,99.99
2018-08-12T03:45:31.004Z,99.99
2018-08-12T03:46:30.939Z,99.99
2018-08-12T03:47:31.008Z,99.99
2018-08-12T03:48:30.940Z,99.99
2018-08-12T03:49:30.889Z,99.99
2018-08-12T03:50:30.939Z,99.99
2018-08-12T03:51:30.938Z,99.99
2018-08-12T03:52:30.955Z,99.99
2018-08-12T03:53:31.014Z,99.99
2018-08-12T03:54:31.013Z,99.99
2018-08-12T03:55:30.949Z,99.99
2018-08-12T03:56:30.943Z,99.99
2018-08-12T03:57:31.026Z,99.99
2018-08-12T03:58:30.950Z,99.99
2018-08-12T03:59:31.017Z,99.99
2018-08-12T04:00:30.956Z,99.99
2018-08-12T04:01:31.050Z,99.99
2018-08-12T04:02:30.955Z,99.99
2018-08-12T04:03:30.949Z,99.99
2018-08-12T04:04:31.019Z,99.99
2018-08-12T04:05:30.968Z,99.99
2018-08-12T04:06:30.963Z,99.99
2018-08-12T04:07:30.890Z,99.99
2018-08-12T04:08:30.928Z,99.99
2018-08-12T04:09:30.989Z,99.99
2018-08-12T04:10:30.926Z,99.99
2018-08-12T04:11:30.952Z,99.99
2018-08-12T04:12:30.992Z,99.99
2018-08-12T04:13:30.930Z,99.99
2018-08-12T04:14:30.931Z,99.99
2018-08-12T04:15:30.911Z,99.99
2018-08-12T04:16:31.016Z,99.99
2018-08-12T04:17:30.886Z,99.99
2018-08-12T04:18:30.929Z,99.99
2018-08-12T04:19:31.017Z,99.99
2018-08-12T04:20:30.974Z,99.99
2018-08-12T04:21:31.018Z,99.99
2018-08-12T04:22:30.999Z,99.99
2018-08-12T04:23:30.893Z,99.99
2018-08-12T04:24:30.911Z,99.99
2018-08-12T04:25:30.962Z,99.99
2018-08-12T04:26:31.032Z,99.99
2018-08-12T04:27:31.035Z,99.99
2018-08-12T04:28:30.963Z,99.99
2018-08-12T04:29:31.039Z,99.99
2018-08-12T04:30:31.039Z,99.99
2018-08-12T04:31:31.004Z,99.99
2018-08-12T04:32:31.037Z,99.99
2018-08-12T04:33:30.964Z,99.99
2018-08-12T04:34:31.040Z,99.99
2018-08-12T04:35:30.898Z,99.99
2018-08-12T04:36:30.996Z,99.99
2018-08-12T04:37:30.951Z,99.99
2018-08-12T04:38:30.967Z,99.99
2018-08-12T04:39:30.950Z,99.99
2018-08-12T04:40:31.001Z,99.99
2018-08-12T04:41:30.968Z,99.99
2018-08-12T04:42:31.000Z,99.99
2018-08-12T04:43:30.937Z,99.99
2018-08-12T04:44:30.984Z,99.99
2018-08-12T04:45:30.973Z,99.99
2018-08-12T04:46:31.048Z,99.99
2018-08-12T04:47:30.933Z,99.99
2018-08-12T04:48:31.002Z,99.99
2018-08-12T04:49:31.055Z,99.99
2018-08-12T04:50:30.982Z,99.99
2018-08-12T04:51:31.051Z,99.99
2018-08-12T04:52:31.053Z,99.99
2018-08-12T04:53:30.977Z,99.99
2018-08-12T04:54:31.055Z,99.99
2018-08-12T04:55:31.054Z,99.99
2018-08-12T04:56:30.983Z,99.99
2018-08-12T04:57:30.979Z,99.99
2018-08-12T04:58:31.057Z,99.99
2018-08-12T04:59:30.978Z,99.99
2018-08-12T05:00:31.057Z,99.99
2018-08-12T05:01:31.058Z,99.99
2018-08-12T05:02:30.981Z,99.99
2018-08-12T05:03:30.987Z,99.99
2018-08-12T05:04:31.059Z,99.99
2018-08-12T05:05:31.060Z,99.99
2018-08-12T05:06:31.085Z,99.99
2018-08-12T05:07:31.062Z,99.99
2018-08-12T05:08:30.991Z,99.99
2018-08-12T05:09:31.061Z,99.99
2018-08-12T05:10:31.062Z,99.99
2018-08-12T05:11:30.998Z,99.99
2018-08-12T05:12:30.994Z,99.99
2018-08-12T05:13:31.067Z,99.99
2018-08-12T05:14:30.996Z,99.99
2018-08-12T05:15:31.036Z,99.99
2018-08-12T05:16:30.943Z,99.99
2018-08-12T05:17:30.930Z,99.99
2018-08-12T05:18:31.038Z,99.99
2018-08-12T05:19:31.011Z,99.99
2018-08-12T05:20:30.971Z,99.99
2018-08-12T05:21:30.995Z,99.99
2018-08-12T05:22:31.050Z,99.99
2018-08-12T05:23:30.973Z,99.99
2018-08-12T05:24:31.022Z,99.99
2018-08-12T05:25:31.075Z,99.99
2018-08-12T05:26:31.002Z,99.99
2018-08-12T05:27:31.077Z,99.99
2018-08-12T05:28:30.999Z,99.99
2018-08-12T05:29:31.076Z,99.99
2018-08-12T05:30:31.005Z,99.99
2018-08-12T05:31:31.080Z,99.99
2018-08-12T05:32:31.030Z,99.99
2018-08-12T05:33:31.082Z,99.99
2018-08-12T05:34:31.081Z,99.99
2018-08-12T05:35:31.012Z,99.99
2018-08-12T05:36:31.036Z,99.99
2018-08-12T05:37:31.084Z,99.99
2018-08-12T05:38:31.087Z,99.99
2018-08-12T05:39:31.014Z,99.99
2018-08-12T05:40:30.977Z,99.99
2018-08-12T05:41:31.121Z,99.99
2018-08-12T05:42:31.010Z,99.99
2018-08-12T05:43:31.090Z,99.99
2018-08-12T05:44:31.016Z,99.99
2018-08-12T05:45:31.089Z,99.99
2018-08-12T05:46:31.015Z,99.99
2018-08-12T05:47:31.134Z,99.99
2018-08-12T05:48:31.013Z,99.99
2018-08-12T05:49:31.111Z,99.99
2018-08-12T05:50:31.023Z,99.99
2018-08-12T05:51:31.202Z,99.99
2018-08-12T05:52:31.020Z,99.99
2018-08-12T05:53:31.095Z,99.99
2018-08-12T05:54:31.023Z,99.99
2018-08-12T05:55:31.095Z,99.99
2018-08-12T05:56:31.024Z,99.99
2018-08-12T05:57:31.096Z,99.96
2018-08-12T05:58:31.027Z,99.67
2018-08-12T05:59:31.101Z,99.43
2018-08-12T06:00:31.050Z,98.96
2018-08-12T06:01:31.100Z,98.42
2018-08-12T06:02:31.030Z,97.80
2018-08-12T06:03:31.103Z,97.34
2018-08-12T06:04:31.028Z,96.88
2018-08-12T06:05:31.033Z,96.50
2018-08-12T06:06:30.982Z,96.45
2018-08-12T06:07:31.059Z,95.31
2018-08-12T06:08:30.981Z,93.45
2018-08-12T06:09:30.982Z,92.03
2018-08-12T06:10:31.068Z,91.38
2018-08-12T06:11:31.054Z,90.90
2018-08-12T06:12:31.054Z,89.86
2018-08-12T06:13:31.074Z,88.39
2018-08-12T06:14:31.057Z,87.13
2018-08-12T06:15:31.012Z,86.54
2018-08-12T06:16:31.112Z,85.43
2018-08-12T06:17:31.097Z,83.65
2018-08-12T06:18:31.115Z,83.62
2018-08-12T06:19:31.042Z,83.20
2018-08-12T06:20:31.114Z,82.56
2018-08-12T06:21:31.052Z,81.71
2018-08-12T06:22:31.119Z,80.97
2018-08-12T06:23:31.118Z,80.36
2018-08-12T06:24:31.112Z,81.58
2018-08-12T06:25:31.117Z,79.65
2018-08-12T06:26:31.043Z,78.73
2018-08-12T06:27:31.045Z,79.17
2018-08-12T06:28:31.116Z,78.47
2018-08-12T06:30:31.049Z,78.57
2018-08-12T06:31:31.203Z,77.59
2018-08-12T06:32:31.042Z,78.49
2018-08-12T06:33:31.122Z,76.86
2018-08-12T06:34:31.136Z,76.75
2018-08-12T06:35:31.124Z,76.44
2018-08-12T06:36:31.036Z,75.92
2018-08-12T06:37:31.090Z,75.84
2018-08-12T06:38:31.002Z,75.62
2018-08-12T06:39:31.069Z,76.91
2018-08-12T06:40:31.011Z,75.26
2018-08-12T06:41:30.990Z,74.52
2018-08-12T06:42:31.029Z,72.90
2018-08-12T06:43:31.093Z,71.86
2018-08-12T06:44:31.100Z,71.65
2018-08-12T06:45:31.010Z,70.76
2018-08-12T06:46:31.062Z,69.34
2018-08-12T06:47:31.133Z,67.05
2018-08-12T06:48:31.132Z,66.69
2018-08-12T06:49:31.082Z,65.89
2018-08-12T06:50:31.133Z,66.50
2018-08-12T06:51:31.061Z,65.26
2018-08-12T06:52:31.064Z,64.49
2018-08-12T06:53:31.138Z,63.30
2018-08-12T06:54:31.136Z,64.15
2018-08-12T06:55:31.063Z,63.56
2018-08-12T06:56:31.138Z,63.59
2018-08-12T06:57:31.063Z,64.15
2018-08-12T06:58:31.141Z,64.34
2018-08-12T06:59:31.072Z,62.94
2018-08-12T07:00:31.176Z,62.48
2018-08-12T07:01:31.072Z,62.22
2018-08-12T07:02:31.136Z,63.15
2018-08-12T07:03:31.068Z,61.78
2018-08-12T07:04:31.143Z,62.25
2018-08-12T07:05:31.073Z,61.56
2018-08-12T07:06:31.146Z,61.40
2018-08-12T07:07:31.079Z,62.33
2018-08-12T07:08:31.099Z,60.84
2018-08-12T07:09:31.073Z,61.46
2018-08-12T07:10:31.150Z,60.35
2018-08-12T07:11:31.102Z,61.76
2018-08-12T07:12:31.149Z,61.40
2018-08-12T07:13:31.076Z,60.50
2018-08-12T07:14:31.184Z,60.30
2018-08-12T07:15:31.152Z,61.53
2018-08-12T07:16:31.107Z,60.66
2018-08-12T07:17:31.175Z,61.02
2018-08-12T07:18:31.081Z,61.17
2018-08-12T07:19:31.153Z,63.23
2018-08-12T07:20:31.155Z,61.09
2018-08-12T07:21:31.086Z,60.66
2018-08-12T07:22:31.118Z,62.33
2018-08-12T07:23:31.157Z,60.73
2018-08-12T07:24:31.085Z,61.48
2018-08-12T07:25:31.082Z,60.30
2018-08-12T07:26:31.162Z,61.76
2018-08-12T07:27:31.071Z,59.76
2018-08-12T07:28:31.098Z,59.20
2018-08-12T07:29:31.161Z,58.92
2018-08-12T07:30:31.161Z,58.76
2018-08-12T07:31:31.169Z,57.95
2018-08-12T07:32:31.163Z,60.89
2018-08-12T07:33:31.083Z,57.99
2018-08-12T07:34:31.092Z,57.66
2018-08-12T07:35:31.165Z,57.33
2018-08-12T07:36:31.126Z,56.06
2018-08-12T07:37:31.045Z,56.80
2018-08-12T07:38:31.197Z,57.13
2018-08-12T07:39:31.150Z,57.43
2018-08-12T07:40:31.135Z,57.15
2018-08-12T07:41:31.137Z,57.79
2018-08-12T07:42:31.048Z,57.15
2018-08-12T07:43:31.045Z,56.21
2018-08-12T07:44:31.044Z,55.83
2018-08-12T07:45:31.158Z,56.72
2018-08-12T07:46:31.138Z,57.51
2018-08-12T07:47:31.128Z,56.24
2018-08-12T07:48:31.034Z,56.24
2018-08-12T07:49:31.053Z,56.39
2018-08-12T07:50:31.154Z,56.61
2018-08-12T07:51:31.075Z,56.03
2018-08-12T07:52:31.101Z,55.75
2018-08-12T07:53:31.037Z,54.96
2018-08-12T07:54:31.086Z,55.85
2018-08-12T07:55:31.101Z,55.60
2018-08-12T07:56:31.057Z,55.98
2018-08-12T07:57:31.143Z,54.99
2018-08-12T07:58:31.175Z,55.32
2018-08-12T07:59:31.137Z,55.30
2018-08-12T08:00:31.057Z,55.45
2018-08-12T08:01:31.172Z,52.53
2018-08-12T08:02:31.109Z,52.88
2018-08-12T08:03:31.180Z,52.68
2018-08-12T08:04:31.142Z,52.96
2018-08-12T08:05:31.085Z,53.79
2018-08-12T08:06:31.157Z,52.70
2018-08-12T08:07:31.064Z,53.59
2018-08-12T08:08:31.087Z,51.74
2018-08-12T08:09:31.123Z,50.93
2018-08-12T08:10:31.051Z,52.17
2018-08-12T08:11:31.179Z,53.21
2018-08-12T08:12:31.125Z,55.47
2018-08-12T08:13:31.181Z,52.40
2018-08-12T08:14:31.092Z,52.60
2018-08-12T08:15:31.095Z,51.54
2018-08-12T08:16:31.199Z,50.86
2018-08-12T08:17:31.193Z,50.50
2018-08-12T08:18:31.138Z,49.95
2018-08-12T08:19:31.194Z,49.92
2018-08-12T08:20:31.123Z,50.71
2018-08-12T08:21:31.197Z,50.00
2018-08-12T08:22:31.124Z,48.16
2018-08-12T08:23:31.125Z,48.23
2018-08-12T08:24:31.197Z,47.10
2018-08-12T08:25:31.256Z,47.81
2018-08-12T08:26:31.157Z,48.61
2018-08-12T08:27:31.141Z,48.59
2018-08-12T08:28:31.140Z,47.61
2018-08-12T08:29:31.139Z,47.06
2018-08-12T08:30:31.155Z,46.58
2018-08-12T08:31:31.166Z,48.06
2018-08-12T08:32:31.116Z,47.13
2018-08-12T08:33:31.190Z,45.35
2018-08-12T08:34:31.169Z,45.57
2018-08-12T08:35:31.144Z,44.87
2018-08-12T08:36:31.094Z,45.05
2018-08-12T08:37:31.065Z,44.47
2018-08-12T08:38:31.145Z,44.75
2018-08-12T08:39:31.146Z,44.85
2018-08-12T08:40:31.152Z,43.88
2018-08-12T08:41:31.154Z,45.10
2018-08-12T08:42:31.187Z,43.95
2018-08-12T08:43:31.096Z,43.10
2018-08-12T08:44:31.151Z,45.05
2018-08-12T08:45:31.164Z,43.45
2018-08-12T08:46:31.182Z,40.88
2018-08-12T08:47:31.185Z,41.26
2018-08-12T08:48:31.156Z,41.48
2018-08-12T08:49:31.183Z,41.23
2018-08-12T08:50:31.165Z,46.00
2018-08-12T08:51:31.187Z,41.10
2018-08-12T08:52:31.157Z,40.76
2018-08-12T08:53:31.144Z,41.38
2018-08-12T08:54:31.142Z,40.71
2018-08-12T08:55:31.239Z,41.75
2018-08-12T08:56:31.260Z,43.25
2018-08-12T08:57:31.148Z,40.63
2018-08-12T08:58:31.223Z,41.01
2018-08-12T08:59:31.155Z,43.80
2018-08-12T09:00:31.223Z,41.58
2018-08-12T09:01:31.230Z,42.20
2018-08-12T09:02:31.225Z,40.41
2018-08-12T09:03:31.158Z,39.44
2018-08-12T09:04:31.239Z,41.06
2018-08-12T09:05:31.231Z,40.83
2018-08-12T09:06:31.132Z,39.40
2018-08-12T09:07:31.182Z,39.07
2018-08-12T09:08:31.527Z,38.57
2018-08-12T09:09:31.192Z,38.85
2018-08-12T09:10:31.184Z,38.08
2018-08-12T09:11:31.138Z,39.32
2018-08-12T09:12:31.101Z,39.17
2018-08-12T09:13:31.137Z,36.92
2018-08-12T09:14:31.263Z,37.83
2018-08-12T09:15:31.158Z,37.74
2018-08-12T09:16:31.159Z,38.15
2018-08-12T09:17:31.235Z,38.68
2018-08-12T09:18:31.236Z,38.03
2018-08-12T09:19:31.167Z,38.21
2018-08-12T09:20:31.235Z,38.03
2018-08-12T09:21:31.168Z,36.28
2018-08-12T09:22:31.241Z,37.98
2018-08-12T09:23:31.189Z,37.81
2018-08-12T09:24:31.243Z,38.35
2018-08-12T09:25:31.181Z,39.12
2018-08-12T09:26:31.251Z,38.43
2018-08-12T09:27:31.208Z,38.08
2018-08-12T09:28:31.171Z,38.13
2018-08-12T09:29:31.170Z,38.68
2018-08-12T09:30:31.245Z,36.99
2018-08-12T09:31:31.244Z,36.84
2018-08-12T09:32:31.171Z,37.68
2018-08-12T09:33:31.247Z,37.83
2018-08-12T09:34:31.176Z,36.35
2018-08-12T09:35:31.295Z,36.97
2018-08-12T09:36:31.190Z,35.64
2018-08-12T09:37:31.107Z,36.80
2018-08-12T09:38:31.155Z,37.36
2018-08-12T09:39:31.215Z,33.91
2018-08-12T09:40:31.179Z,33.27
2018-08-12T09:41:31.152Z,37.51
2018-08-12T09:42:31.185Z,34.09
2018-08-12T09:43:31.214Z,35.26
2018-08-12T09:44:31.176Z,36.50
2018-08-12T09:45:31.227Z,35.54
2018-08-12T09:46:31.163Z,36.50
2018-08-12T09:47:31.163Z,36.13
2018-08-12T09:48:31.215Z,37.14
2018-08-12T09:49:31.126Z,33.71
2018-08-12T09:50:31.216Z,34.06
2018-08-12T09:51:31.314Z,34.21
2018-08-12T09:52:31.235Z,34.55
2018-08-12T09:53:31.222Z,34.01
2018-08-12T09:54:31.186Z,34.21
2018-08-12T09:55:31.160Z,35.39
2018-08-12T09:56:31.165Z,34.90
2018-08-12T09:57:31.289Z,34.06
2018-08-12T09:58:31.228Z,33.62
2018-08-12T09:59:31.137Z,33.54
2018-08-12T10:00:31.168Z,33.13
2018-08-12T10:01:31.172Z,33.03
2018-08-12T10:02:31.124Z,32.61
2018-08-12T10:03:31.217Z,31.80
2018-08-12T10:04:31.228Z,32.27
2018-08-12T10:05:31.225Z,32.71
2018-08-12T10:06:31.102Z,32.91
2018-08-12T10:07:31.279Z,33.62
2018-08-12T10:08:31.213Z,32.44
2018-08-12T10:09:31.214Z,33.59
2018-08-12T10:10:31.212Z,33.32
2018-08-12T10:11:31.160Z,33.42
2018-08-12T10:12:31.214Z,33.94
2018-08-12T10:13:31.213Z,34.99
2018-08-12T10:14:31.106Z,36.67
2018-08-12T10:15:31.146Z,34.38
2018-08-12T10:16:31.263Z,34.04
2018-08-12T10:17:31.234Z,34.40
2018-08-12T10:18:31.160Z,32.71
2018-08-12T10:19:31.255Z,36.05
2018-08-12T10:20:31.228Z,34.50
2018-08-12T10:21:31.211Z,36.25
2018-08-12T10:22:31.202Z,33.81
2018-08-12T10:23:31.238Z,32.71
2018-08-12T10:24:31.146Z,31.75
2018-08-12T10:25:31.153Z,34.85
2018-08-12T10:26:31.229Z,32.34
2018-08-12T10:27:31.230Z,32.51
2018-08-12T10:28:31.176Z,32.36
2018-08-12T10:29:31.314Z,31.58
2018-08-12T10:30:31.249Z,34.23
2018-08-12T10:31:31.234Z,32.27
2018-08-12T10:32:31.219Z,30.58
2018-08-12T10:33:31.157Z,30.14
2018-08-12T10:34:31.131Z,29.75
2018-08-12T10:35:31.217Z,30.56
2018-08-12T10:36:31.294Z,30.61
2018-08-12T10:37:31.225Z,31.14
2018-08-12T10:38:31.292Z,30.02
2018-08-12T10:39:31.225Z,29.81
2018-08-12T10:40:31.294Z,28.52
2018-08-12T10:41:31.228Z,28.41
2018-08-12T10:42:31.296Z,29.31
2018-08-12T10:43:31.228Z,30.04
2018-08-12T10:44:31.362Z,31.41
2018-08-12T10:45:31.298Z,29.20
2018-08-12T10:46:31.206Z,32.81
2018-08-12T10:47:31.237Z,30.29
2018-08-12T10:48:31.205Z,29.46
2018-08-12T10:49:31.110Z,32.29
2018-08-12T10:50:31.118Z,31.27
2018-08-12T10:51:31.162Z,34.92
2018-08-12T10:52:31.119Z,29.34
2018-08-12T10:53:31.193Z,26.77
2018-08-12T10:54:31.181Z,28.70
2018-08-12T10:55:31.232Z,28.56
2018-08-12T10:56:31.248Z,28.56
2018-08-12T10:57:31.245Z,28.24
2018-08-12T10:58:31.156Z,27.77
2018-08-12T10:59:31.328Z,27.12
2018-08-12T11:00:31.248Z,28.12
2018-08-12T11:01:31.141Z,25.44
2018-08-12T11:02:31.251Z,26.39
2018-08-12T11:03:31.252Z,28.92
2018-08-12T11:04:31.139Z,27.04
2018-08-12T11:05:31.251Z,27.00
2018-08-12T11:06:31.299Z,27.18
2018-08-12T11:07:31.322Z,27.18
2018-08-12T11:08:31.281Z,26.31
2018-08-12T11:09:31.275Z,25.88
2018-08-12T11:10:31.220Z,25.26
2018-08-12T11:11:31.200Z,29.22
2018-08-12T11:12:31.320Z,25.42
2018-08-12T11:13:31.280Z,24.82
2018-08-12T11:14:31.219Z,24.89
2018-08-12T11:15:31.221Z,24.99
2018-08-12T11:16:31.297Z,24.69
2018-08-12T11:17:31.286Z,26.37
2018-08-12T11:18:31.307Z,26.35
2018-08-12T11:19:31.287Z,27.02
2018-08-12T11:20:31.243Z,26.10
2018-08-12T11:21:31.288Z,26.59
2018-08-12T11:22:31.219Z,25.98
2018-08-12T11:23:31.218Z,23.80
2018-08-12T11:24:31.287Z,24.30
2018-08-12T11:26:31.313Z,26.45
2018-08-12T11:27:31.233Z,25.92
2018-08-12T11:28:31.326Z,26.24
2018-08-12T11:29:31.271Z,26.77
2018-08-12T11:30:31.228Z,26.64
2018-08-12T11:31:31.276Z,27.62
2018-08-12T11:32:31.293Z,26.51
2018-08-12T11:33:31.295Z,26.57
2018-08-12T11:34:31.276Z,26.77
2018-08-12T11:35:31.296Z,25.84
2018-08-12T11:36:31.257Z,28.70
2018-08-12T11:37:31.336Z,27.83
2018-08-12T11:38:31.264Z,29.16
2018-08-12T11:39:31.265Z,25.45
2018-08-12T11:40:31.336Z,25.94
2018-08-12T11:41:31.269Z,25.44
2018-08-12T11:42:31.341Z,26.22
2018-08-12T11:43:31.276Z,26.45
2018-08-12T11:44:31.341Z,26.71
2018-08-12T11:45:31.268Z,28.62
2018-08-12T11:46:31.223Z,27.36
2018-08-12T11:47:31.310Z,27.63
2018-08-12T11:48:31.247Z,26.96
2018-08-12T11:49:31.299Z,26.31
2018-08-12T11:50:31.302Z,25.80
2018-08-12T11:51:31.272Z,24.99
2018-08-12T11:52:31.272Z,25.49
2018-08-12T11:53:31.249Z,25.40
2018-08-12T11:54:31.308Z,27.22
2018-08-12T11:55:31.227Z,26.10
2018-08-12T11:56:31.347Z,24.94
2018-08-12T11:57:31.348Z,24.51
2018-08-12T11:58:31.349Z,26.29
2018-08-12T11:59:31.232Z,25.49
2018-08-12T12:00:31.280Z,25.84
2018-08-12T12:01:31.350Z,24.74
2018-08-12T12:02:31.422Z,23.23
2018-08-12T12:03:31.357Z,24.66
2018-08-12T12:04:31.413Z,24.87
2018-08-12T12:05:31.353Z,24.53
2018-08-12T12:06:31.306Z,25.17
2018-08-12T12:07:31.195Z,27.08
2018-08-12T12:08:31.209Z,24.70
2018-08-12T12:09:31.185Z,24.41
2018-08-12T12:10:31.249Z,23.88
2018-08-12T12:11:31.300Z,24.76
2018-08-12T12:12:31.302Z,24.61
2018-08-12T12:13:31.214Z,25.90
2018-08-12T12:15:31.254Z,26.78
2018-08-12T12:16:31.270Z,23.95
2018-08-12T12:17:31.302Z,26.24
2018-08-12T12:18:31.341Z,23.86
2018-08-12T12:19:31.225Z,22.20
2018-08-12T12:20:31.259Z,22.13
2018-08-12T12:21:31.331Z,21.16
2018-08-12T12:22:31.221Z,21.38
2018-08-12T12:23:31.322Z,21.90
2018-08-12T12:24:31.269Z,22.62
2018-08-12T12:25:31.246Z,23.56
2018-08-12T12:26:31.370Z,22.55
2018-08-12T12:27:31.370Z,23.88
2018-08-12T12:28:31.370Z,25.75
2018-08-12T12:29:31.301Z,24.53
2018-08-12T12:30:31.371Z,25.47
2018-08-12T12:31:31.303Z,24.66
2018-08-12T12:32:31.305Z,28.43
2018-08-12T12:34:31.300Z,23.61
2018-08-12T12:35:31.427Z,22.39
2018-08-12T12:36:31.307Z,23.14
2018-08-12T12:37:31.255Z,26.49
2018-08-12T12:38:31.287Z,23.18
2018-08-12T12:39:31.309Z,23.61
2018-08-12T12:40:31.388Z,23.50
2018-08-12T12:41:31.380Z,21.66
2018-08-12T12:42:31.307Z,22.55
2018-08-12T12:43:31.382Z,23.35
2018-08-12T12:44:31.380Z,23.16
2018-08-12T12:45:31.305Z,22.88
2018-08-12T12:46:31.382Z,23.69
2018-08-12T12:47:31.316Z,22.22
2018-08-12T12:48:31.387Z,22.88
2018-08-12T12:49:31.314Z,22.45
2018-08-12T12:50:31.322Z,23.75
2018-08-12T12:51:31.386Z,22.92
2018-08-12T12:52:31.337Z,23.14
2018-08-12T12:53:31.325Z,21.33
2018-08-12T12:54:31.389Z,22.00
2018-08-12T12:55:31.322Z,23.16
2018-08-12T12:56:31.430Z,22.24